Time;durP1;ratioP1;P1;durP2;ratioP2;P2;SDS_P1;SDS_P2;PMS_P1;PMS_P2;Temp;Humidity;BMP_temperature;BMP_pressure;BME280_temperature;BME280_humidity;BME280_pressure;Samples;Min_cycle;Max_cycle;Signal;HPM_P1;HPM_P2
2021/12/03 00:02:15;;;;;;;5.65;3.75;;;;;;;11.04;100.00;100061.50;4996455;28;20026;-70
2021/12/03 00:05:01;;;;;;;4.50;3.45;;;;;;;11.11;100.00;100055.19;4996474;28;20030;-70
2021/12/03 00:07:47;;;;;;;5.15;3.65;;;;;;;11.33;100.00;100062.34;4996068;28;20037;-71
2021/12/03 00:10:35;;;;;;;6.35;3.30;;;;;;;11.19;100.00;100069.78;4996766;28;20030;-70
2021/12/03 00:13:21;;;;;;;6.55;4.47;;;;;;;11.21;100.00;100070.59;4996226;28;20058;-70
2021/12/03 00:16:07;;;;;;;6.47;4.80;;;;;;;10.82;100.00;100073.53;4996243;28;20026;-71
2021/12/03 00:18:53;;;;;;;8.05;5.40;;;;;;;10.93;100.00;100081.94;4996046;28;20034;-69
2021/12/03 00:21:39;;;;;;;9.30;5.30;;;;;;;10.58;100.00;100084.69;4996580;28;20041;-70
2021/12/03 00:24:25;;;;;;;6.82;5.07;;;;;;;10.50;100.00;100089.28;4995420;28;20502;-70
2021/12/03 00:27:11;;;;;;;5.45;3.90;;;;;;;10.72;100.00;100082.56;4996703;28;20034;-71
2021/12/03 00:29:56;;;;;;;6.95;3.72;;;;;;;10.93;100.00;100074.94;4995449;28;20457;-70
2021/12/03 00:32:44;;;;;;;5.68;3.90;;;;;;;11.03;100.00;100076.41;4995786;28;20030;-69
2021/12/03 00:35:29;;;;;;;5.55;4.13;;;;;;;10.87;100.00;100075.13;4995533;28;20069;-71
2021/12/03 00:38:16;;;;;;;5.40;3.38;;;;;;;10.77;100.00;100076.28;4995723;28;20424;-70
2021/12/03 00:41:05;;;;;;;5.93;3.47;;;;;;;10.95;100.00;100069.66;4995146;28;20140;-70
2021/12/03 00:43:53;;;;;;;7.20;3.53;;;;;;;11.08;100.00;100069.25;4995383;28;20025;-71
2021/12/03 00:46:38;;;;;;;4.30;3.13;;;;;;;10.60;100.00;100061.97;4996189;28;20084;-71
2021/12/03 00:49:25;;;;;;;4.68;3.35;;;;;;;10.26;100.00;100061.13;4994920;28;20109;-71
2021/12/03 00:52:11;;;;;;;6.70;4.20;;;;;;;10.81;100.00;100062.19;4995603;28;20459;-70
2021/12/03 00:54:57;;;;;;;4.60;3.00;;;;;;;10.63;100.00;100061.84;4995171;28;20038;-70
2021/12/03 00:57:43;;;;;;;4.63;3.40;;;;;;;10.88;100.00;100062.88;4996365;28;20057;-70
2021/12/03 01:00:31;;;;;;;4.53;3.00;;;;;;;10.78;100.00;100057.06;4995767;28;20058;-71
2021/12/03 01:03:17;;;;;;;4.70;3.10;;;;;;;10.85;100.00;100052.50;4995002;28;20359;-70
2021/12/03 01:06:03;;;;;;;4.43;2.88;;;;;;;11.19;100.00;100059.31;4995341;28;20479;-70
2021/12/03 01:08:49;;;;;;;3.50;3.00;;;;;;;11.02;100.00;100050.22;4995415;28;20042;-70
2021/12/03 01:11:35;;;;;;;6.10;3.30;;;;;;;10.82;100.00;100048.19;4995531;28;20479;-70
2021/12/03 01:14:21;;;;;;;4.55;3.00;;;;;;;10.95;100.00;100046.94;4994970;28;20030;-71
2021/12/03 01:17:07;;;;;;;6.93;3.30;;;;;;;11.10;100.00;100038.63;4995572;28;20040;-70
2021/12/03 01:19:54;;;;;;;8.82;3.30;;;;;;;10.95;100.00;100031.22;4995419;28;20049;-70
2021/12/03 01:22:42;;;;;;;4.32;3.15;;;;;;;11.09;100.00;100042.13;4995340;28;20061;-70
2021/12/03 01:25:28;;;;;;;4.38;3.50;;;;;;;10.89;100.00;100031.38;4995229;28;20093;-70
2021/12/03 01:28:15;;;;;;;6.15;3.65;;;;;;;11.01;100.00;100033.63;4996079;28;20022;-70
2021/12/03 01:31:03;;;;;;;4.40;3.40;;;;;;;10.84;100.00;100025.41;4994369;28;20030;-69
2021/12/03 01:33:49;;;;;;;4.55;2.90;;;;;;;10.59;100.00;100019.19;4994482;28;20030;-70
2021/12/03 01:36:35;;;;;;;3.75;3.03;;;;;;;10.77;100.00;100020.41;4994342;28;20050;-70
2021/12/03 01:39:20;;;;;;;3.67;2.92;;;;;;;10.95;100.00;100022.47;4995306;28;20676;-70
2021/12/03 01:42:06;;;;;;;5.00;3.20;;;;;;;11.17;100.00;100020.94;4995295;28;20041;-70
2021/12/03 01:44:52;;;;;;;4.75;3.03;;;;;;;11.31;100.00;100018.72;4994695;28;20023;-70
2021/12/03 01:47:41;;;;;;;6.68;3.63;;;;;;;10.58;100.00;100007.00;4994669;28;20038;-70
2021/12/03 01:50:43;;;;;;;4.30;3.42;;;;;;;10.72;100.00;100006.59;4995100;28;20046;-71
2021/12/03 01:53:32;;;;;;;4.55;3.17;;;;;;;10.81;100.00;99999.28;4995095;28;20026;-70
2021/12/03 01:56:19;;;;;;;4.90;3.22;;;;;;;11.05;100.00;99993.31;4993790;28;20068;-69
2021/12/03 01:59:07;;;;;;;3.70;2.85;;;;;;;10.90;100.00;100006.03;4994766;28;20031;-70
2021/12/03 02:01:53;;;;;;;4.97;3.20;;;;;;;10.83;100.00;99999.25;4994331;28;20041;-70
2021/12/03 02:04:38;;;;;;;4.80;2.83;;;;;;;10.74;100.00;99996.91;4994885;28;20022;-69
2021/12/03 02:07:24;;;;;;;3.58;2.70;;;;;;;10.96;100.00;99984.88;4994808;28;20030;-69
2021/12/03 02:10:11;;;;;;;4.60;2.70;;;;;;;11.04;100.00;99985.50;4995356;28;20031;-70
2021/12/03 02:12:57;;;;;;;3.72;2.88;;;;;;;11.21;100.00;99988.47;4993701;28;20026;-70
2021/12/03 02:15:44;;;;;;;4.65;2.90;;;;;;;11.23;100.00;99991.88;4994603;28;20066;-70
2021/12/03 02:18:30;;;;;;;5.35;3.00;;;;;;;10.95;100.00;99993.66;4994138;28;20084;-70
2021/12/03 02:21:17;;;;;;;5.15;2.70;;;;;;;10.61;100.00;99988.53;4994194;28;20026;-70
2021/12/03 02:24:04;;;;;;;4.70;3.38;;;;;;;11.01;100.00;99986.44;4994672;28;20026;-71
2021/12/03 02:26:50;;;;;;;3.97;2.75;;;;;;;10.93;100.00;99983.19;4994971;28;20459;-70
2021/12/03 02:29:35;;;;;;;4.47;2.70;;;;;;;11.11;100.00;99973.91;4993928;28;20034;-70
2021/12/03 02:32:21;;;;;;;3.70;2.75;;;;;;;10.90;100.00;99975.47;4994665;28;20037;-69
2021/12/03 02:35:08;;;;;;;4.32;2.50;;;;;;;10.68;100.00;99987.47;4993990;28;20382;-70
2021/12/03 02:37:55;;;;;;;3.83;2.67;;;;;;;11.22;100.00;99987.56;4994001;28;20366;-70
2021/12/03 02:40:42;;;;;;;4.00;2.70;;;;;;;11.29;100.00;99992.53;4995158;28;20030;-71
2021/12/03 02:43:28;;;;;;;5.47;2.72;;;;;;;11.15;100.00;99996.50;4993475;28;20477;-70
2021/12/03 02:46:14;;;;;;;5.88;2.70;;;;;;;11.12;100.00;99993.97;4994690;28;20038;-69
2021/12/03 02:49:00;;;;;;;4.25;2.65;;;;;;;10.79;100.00;100006.34;4995543;28;20057;-69
2021/12/03 02:51:46;;;;;;;6.55;2.83;;;;;;;11.07;100.00;100003.75;4998110;28;20324;-70
2021/12/03 02:54:31;;;;;;;3.38;2.53;;;;;;;10.57;100.00;100012.28;4983720;28;20030;-70
2021/12/03 02:57:17;;;;;;;3.58;2.53;;;;;;;10.62;100.00;100010.38;4997329;28;20037;-70
2021/12/03 03:00:07;;;;;;;3.85;2.70;;;;;;;10.64;100.00;100006.78;4998204;28;20431;-70
2021/12/03 03:02:53;;;;;;;4.25;2.88;;;;;;;11.07;100.00;100011.63;4998568;28;20169;-70
2021/12/03 03:05:39;;;;;;;4.57;2.70;;;;;;;10.80;100.00;100015.94;4997457;28;20041;-71
2021/12/03 03:08:26;;;;;;;5.45;3.03;;;;;;;10.66;100.00;100004.13;4997477;28;20531;-70
2021/12/03 03:11:12;;;;;;;8.25;2.92;;;;;;;10.58;100.00;100009.63;4997346;28;20073;-70
2021/12/03 03:13:58;;;;;;;3.90;2.90;;;;;;;10.52;100.00;100007.16;4996556;28;20109;-70
2021/12/03 03:16:44;;;;;;;4.18;3.00;;;;;;;10.74;100.00;100003.03;4997237;28;20030;-70
2021/12/03 03:19:30;;;;;;;3.45;2.83;;;;;;;10.74;100.00;99995.16;4997080;28;20041;-71
2021/12/03 03:22:16;;;;;;;4.20;3.22;;;;;;;10.67;100.00;99996.25;4997354;28;20454;-71
2021/12/03 03:25:03;;;;;;;4.70;3.20;;;;;;;10.96;100.00;99992.72;4996831;28;20062;-70
2021/12/03 03:27:50;;;;;;;6.38;3.15;;;;;;;10.92;100.00;99986.75;4997121;28;20045;-71
2021/12/03 03:30:39;;;;;;;3.88;2.97;;;;;;;10.86;100.00;99986.94;4996548;28;20419;-70
2021/12/03 03:33:26;;;;;;;4.55;2.97;;;;;;;11.16;100.00;99996.47;5010869;28;20088;-70
2021/12/03 03:36:12;;;;;;;7.75;3.40;;;;;;;10.65;100.00;99992.78;4996290;28;20043;-71
2021/12/03 03:38:59;;;;;;;5.65;3.42;;;;;;;10.97;100.00;99991.84;4997727;28;20026;-70
2021/12/03 03:41:44;;;;;;;4.22;3.10;;;;;;;11.18;100.00;99993.81;4996828;28;20033;-70
2021/12/03 03:44:31;;;;;;;4.55;2.85;;;;;;;10.97;100.00;99979.59;4997924;28;20184;-70
2021/12/03 03:47:17;;;;;;;3.88;3.03;;;;;;;11.07;100.00;99988.91;4997690;28;20030;-71
2021/12/03 03:50:03;;;;;;;4.35;2.72;;;;;;;10.96;100.00;99992.72;4996581;28;20033;-70
2021/12/03 03:52:51;;;;;;;5.43;3.17;;;;;;;11.14;100.00;100003.53;4996538;28;20049;-71
2021/12/03 03:55:37;;;;;;;4.00;2.90;;;;;;;11.28;100.00;100003.06;4995597;28;20345;-70
2021/12/03 03:58:23;;;;;;;4.90;3.20;;;;;;;10.97;100.00;100000.56;4997114;28;20022;-69
2021/12/03 04:01:12;;;;;;;5.15;3.13;;;;;;;11.07;100.00;100002.00;4996053;28;20022;-70
2021/12/03 04:03:58;;;;;;;5.45;3.33;;;;;;;11.10;100.00;99996.69;4996538;28;20061;-70
2021/12/03 04:06:44;;;;;;;7.05;3.60;;;;;;;11.01;100.00;99996.94;4996737;28;20052;-70
2021/12/03 04:09:30;;;;;;;4.75;3.40;;;;;;;11.09;100.00;99997.56;4996631;28;20072;-71
2021/12/03 04:12:16;;;;;;;8.10;3.50;;;;;;;10.88;100.00;100000.84;4997202;28;20062;-71
2021/12/03 04:15:04;;;;;;;6.70;3.83;;;;;;;10.98;100.00;99993.56;4997075;28;20026;-70
2021/12/03 04:17:50;;;;;;;6.80;3.85;;;;;;;11.07;100.00;99996.75;4996880;28;20030;-70
2021/12/03 04:20:36;;;;;;;9.40;3.60;;;;;;;10.61;100.00;99991.16;4997657;28;20042;-71
2021/12/03 04:23:22;;;;;;;8.15;3.38;;;;;;;10.89;100.00;99978.97;4996003;28;20038;-70
2021/12/03 04:26:08;;;;;;;6.05;3.30;;;;;;;10.94;100.00;99989.31;4996362;28;20026;-69
2021/12/03 04:28:55;;;;;;;8.65;3.90;;;;;;;11.11;100.00;99994.88;4996581;28;20168;-69
2021/12/03 04:31:40;;;;;;;5.18;3.38;;;;;;;10.95;100.00;99994.50;4995082;28;20479;-70
2021/12/03 04:34:26;;;;;;;6.85;3.38;;;;;;;10.66;100.00;100002.38;4996166;28;20054;-71
2021/12/03 04:37:12;;;;;;;4.80;3.63;;;;;;;11.13;100.00;99990.47;4994810;28;20026;-71
2021/12/03 04:39:58;;;;;;;7.30;3.90;;;;;;;11.16;100.00;99990.34;4997055;28;20457;-69
2021/12/03 04:42:45;;;;;;;6.82;3.53;;;;;;;11.01;100.00;99986.44;4996616;28;20105;-70
2021/12/03 04:45:31;;;;;;;6.60;3.97;;;;;;;11.35;100.00;99981.88;4995183;28;20459;-70
2021/12/03 04:48:17;;;;;;;5.53;4.00;;;;;;;11.17;100.00;99981.59;4996087;28;20034;-70
2021/12/03 04:51:03;;;;;;;7.82;4.65;;;;;;;11.10;100.00;99998.44;4995641;28;20439;-70
2021/12/03 04:53:49;;;;;;;8.23;5.20;;;;;;;11.15;100.00;99993.88;4995837;28;20363;-70
2021/12/03 04:56:35;;;;;;;7.28;4.90;;;;;;;11.18;100.00;99980.69;4995508;28;20534;-70
2021/12/03 04:59:21;;;;;;;8.55;3.97;;;;;;;11.01;100.00;99978.59;4995289;28;20136;-69
2021/12/03 05:02:07;;;;;;;8.38;5.45;;;;;;;11.13;100.00;99980.81;5008046;28;20347;-71
2021/12/03 05:04:55;;;;;;;10.18;5.07;;;;;;;11.35;100.00;99968.75;4994656;28;20049;-70
2021/12/03 05:10:33;;;;;;;5.57;3.30;;;;;;;11.66;100.00;99966.00;4995911;28;20023;-70
2021/12/03 05:13:26;;;;;;;4.57;3.05;;;;;;;11.56;100.00;99956.69;4994236;28;20026;-69
2021/12/03 05:16:12;;;;;;;6.03;3.33;;;;;;;11.54;100.00;99955.91;4996453;28;20068;-69
2021/12/03 05:18:57;;;;;;;7.22;3.47;;;;;;;11.58;100.00;99963.59;4994971;28;20422;-70
2021/12/03 05:21:44;;;;;;;6.95;3.20;;;;;;;11.70;100.00;99967.63;4995468;28;20034;-70
2021/12/03 05:24:30;;;;;;;4.63;3.60;;;;;;;11.68;100.00;99972.91;4994973;28;20053;-70
2021/12/03 05:27:19;;;;;;;5.72;3.50;;;;;;;11.94;98.84;99980.75;4994709;28;20479;-70
2021/12/03 05:30:07;;;;;;;5.60;4.00;;;;;;;11.75;99.86;99981.44;4995109;28;20049;-70
2021/12/03 05:32:54;;;;;;;7.72;4.82;;;;;;;11.58;100.00;99973.25;4994659;28;20459;-71
2021/12/03 05:35:39;;;;;;;8.90;5.05;;;;;;;11.87;100.00;99970.53;4994516;28;20454;-69
2021/12/03 05:38:25;;;;;;;8.90;4.65;;;;;;;12.01;99.84;99974.38;4995343;28;20034;-70
2021/12/03 05:41:11;;;;;;;10.35;5.00;;;;;;;11.94;100.00;99972.03;4993639;28;20041;-70
2021/12/03 05:43:57;;;;;;;8.82;4.80;;;;;;;11.88;100.00;99982.72;4993877;28;20018;-69
2021/12/03 05:46:43;;;;;;;9.25;5.10;;;;;;;11.84;100.00;99987.25;4994343;28;20026;-70
2021/12/03 05:49:29;;;;;;;9.73;4.80;;;;;;;11.53;100.00;99991.75;4994551;28;20033;-71
2021/12/03 05:52:15;;;;;;;7.53;4.43;;;;;;;11.69;100.00;99982.50;4995000;28;20410;-69
2021/12/03 05:55:01;;;;;;;6.82;4.25;;;;;;;11.94;100.00;99974.66;4995278;28;20044;-70
2021/12/03 05:57:47;;;;;;;8.00;3.85;;;;;;;11.79;100.00;99986.53;4994266;28;20037;-70
2021/12/03 06:00:37;;;;;;;7.07;4.18;;;;;;;12.11;100.00;99995.94;4994386;28;20026;-70
2021/12/03 06:03:23;;;;;;;7.18;4.60;;;;;;;12.33;100.00;99984.59;4995086;28;20388;-70
2021/12/03 06:06:08;;;;;;;4.88;3.88;;;;;;;12.15;100.00;99989.66;4994301;28;20022;-70
2021/12/03 06:08:54;;;;;;;5.93;4.30;;;;;;;12.45;99.57;99991.16;4995366;28;20030;-70
2021/12/03 06:11:40;;;;;;;7.72;4.30;;;;;;;12.36;100.00;99978.38;4994873;28;20092;-70
2021/12/03 06:14:27;;;;;;;8.48;5.43;;;;;;;12.27;100.00;99976.97;4994739;28;20022;-70
2021/12/03 06:17:15;;;;;;;6.75;4.18;;;;;;;12.18;100.00;99977.25;4994586;28;20041;-71
2021/12/03 06:20:02;;;;;;;7.05;4.00;;;;;;;12.38;100.00;99977.41;4993796;28;20052;-69
2021/12/03 06:22:49;;;;;;;6.05;4.00;;;;;;;12.22;100.00;99976.25;4995204;28;20069;-70
2021/12/03 06:25:35;;;;;;;5.80;4.20;;;;;;;12.33;100.00;99989.84;4997741;28;20018;-70
2021/12/03 06:28:21;;;;;;;9.68;3.88;;;;;;;12.55;100.00;99988.19;4997993;28;20089;-70
2021/12/03 06:31:08;;;;;;;29.25;4.65;;;;;;;12.49;100.00;99992.78;4997417;28;20449;-69
2021/12/03 06:33:54;;;;;;;9.02;4.25;;;;;;;12.79;99.07;100000.41;4997981;28;20108;-70
2021/12/03 06:36:39;;;;;;;6.88;4.07;;;;;;;12.58;100.00;100003.81;4997955;28;20057;-69
2021/12/03 06:39:25;;;;;;;6.50;4.22;;;;;;;12.51;100.00;100002.34;4999407;28;20049;-70
2021/12/03 06:42:11;;;;;;;10.38;4.53;;;;;;;12.50;100.00;100005.84;4997932;28;20030;-70
2021/12/03 06:44:57;;;;;;;12.38;4.32;;;;;;;13.12;96.97;100014.03;4997337;28;20041;-71
2021/12/03 06:47:43;;;;;;;10.75;4.85;;;;;;;12.86;97.38;100009.75;4997432;28;20481;-70
2021/12/03 06:50:31;;;;;;;10.30;4.70;;;;;;;12.88;98.45;100015.81;4997330;28;20030;-70
2021/12/03 06:53:21;;;;;;;9.20;5.45;;;;;;;13.09;96.49;100012.41;4997230;28;20041;-71
2021/12/03 06:56:09;;;;;;;8.95;6.10;;;;;;;13.13;97.36;100021.00;4998082;28;20030;-70
2021/12/03 06:58:55;;;;;;;12.55;5.82;;;;;;;12.91;97.80;100022.72;4997872;28;20030;-71
2021/12/03 07:01:41;;;;;;;16.55;5.90;;;;;;;12.79;99.66;100034.56;4997190;28;20056;-72
2021/12/03 07:04:27;;;;;;;13.82;7.00;;;;;;;13.09;98.01;100038.69;4997743;28;20033;-70
2021/12/03 07:07:13;;;;;;;10.55;6.47;;;;;;;13.28;96.97;100038.84;4997148;28;20026;-71
2021/12/03 07:10:00;;;;;;;13.30;6.32;;;;;;;12.91;99.62;100033.25;4998634;28;20497;-70
2021/12/03 07:12:46;;;;;;;8.85;5.57;;;;;;;13.00;99.97;100043.44;4997737;28;20046;-71
2021/12/03 07:15:32;;;;;;;19.63;6.60;;;;;;;13.15;99.03;100042.88;4996702;28;20050;-70
2021/12/03 07:18:18;;;;;;;25.17;6.00;;;;;;;13.56;96.34;100040.31;4997570;28;20097;-70
2021/12/03 07:21:04;;;;;;;18.80;5.90;;;;;;;13.58;95.98;100040.22;4996950;28;20030;-71
2021/12/03 07:23:51;;;;;;;7.15;4.20;;;;;;;13.27;99.87;100039.75;4997490;28;20088;-71
2021/12/03 07:26:37;;;;;;;17.75;4.68;;;;;;;13.22;98.85;100039.94;4997110;28;20111;-70
2021/12/03 07:29:22;;;;;;;16.75;4.30;;;;;;;13.35;99.21;100043.78;4997364;28;20068;-70
2021/12/03 07:32:08;;;;;;;10.90;4.55;;;;;;;13.52;98.00;100054.53;4997424;28;20061;-70
2021/12/03 07:34:54;;;;;;;11.10;4.80;;;;;;;13.88;96.16;100045.13;4995645;28;20060;-70
2021/12/03 07:37:43;;;;;;;8.23;4.95;;;;;;;13.96;94.54;100047.44;4997489;28;20074;-71
2021/12/03 07:40:28;;;;;;;12.23;5.68;;;;;;;13.98;96.94;100043.81;4996351;28;20113;-69
2021/12/03 07:43:17;;;;;;;11.10;5.57;;;;;;;14.18;94.83;100041.19;4996386;28;20029;-70
2021/12/03 07:46:02;;;;;;;10.75;6.03;;;;;;;14.49;91.99;100051.28;4997754;28;20095;-69
2021/12/03 07:48:49;;;;;;;17.40;7.03;;;;;;;14.05;96.03;100047.03;4997698;28;20026;-70
2021/12/03 07:51:35;;;;;;;12.45;5.28;;;;;;;13.86;97.79;100039.06;4996655;28;20113;-70
2021/12/03 07:54:22;;;;;;;14.60;4.60;;;;;;;14.26;95.65;100033.84;4996332;28;20041;-71
2021/12/03 07:57:07;;;;;;;9.75;4.80;;;;;;;14.08;97.72;100024.09;4997140;28;20030;-70
2021/12/03 07:59:53;;;;;;;9.38;5.22;;;;;;;14.43;97.27;100020.78;4996841;28;20455;-70
2021/12/03 08:02:39;;;;;;;8.68;4.38;;;;;;;14.12;99.16;100032.69;4997400;28;20363;-70
2021/12/03 08:05:25;;;;;;;10.23;4.40;;;;;;;14.39;97.72;100032.38;4996979;28;20018;-71
2021/12/03 08:08:11;;;;;;;15.25;4.65;;;;;;;14.88;95.84;100026.63;4996757;28;20491;-70
2021/12/03 08:10:57;;;;;;;12.13;5.18;;;;;;;14.77;94.62;100009.59;4997632;28;20026;-70
2021/12/03 08:13:43;;;;;;;8.90;4.70;;;;;;;14.75;95.29;99992.97;4995292;28;20109;-71
2021/12/03 08:16:29;;;;;;;12.85;5.25;;;;;;;14.73;95.26;100013.28;4996040;28;20112;-70
2021/12/03 08:19:14;;;;;;;14.20;4.75;;;;;;;14.83;94.67;100015.44;4997093;28;20116;-71
2021/12/03 08:22:00;;;;;;;11.25;4.55;;;;;;;14.79;94.54;100024.41;4996312;28;20108;-71
2021/12/03 08:24:46;;;;;;;14.38;5.18;;;;;;;14.77;94.83;100025.41;4995481;28;20473;-70
2021/12/03 08:27:32;;;;;;;14.20;4.80;;;;;;;14.69;94.05;100032.81;4996038;28;20312;-71
2021/12/03 08:30:18;;;;;;;15.27;4.38;;;;;;;14.82;93.51;100034.84;4996536;28;20096;-72
2021/12/03 08:33:04;;;;;;;10.77;4.53;;;;;;;15.23;90.86;100034.72;4995983;28;20032;-70
2021/12/03 08:35:51;;;;;;;12.10;4.53;;;;;;;14.82;92.80;100040.09;4995352;28;20069;-71
2021/12/03 08:38:37;;;;;;;15.68;4.50;;;;;;;14.83;92.55;100036.53;4996498;28;20394;-70
2021/12/03 08:41:23;;;;;;;14.48;4.90;;;;;;;14.91;93.19;100038.81;4996172;28;20026;-71
2021/12/03 08:44:09;;;;;;;19.40;4.65;;;;;;;14.95;93.09;100052.75;4995046;28;20093;-71
2021/12/03 08:46:59;;;;;;;7.18;4.07;;;;;;;14.95;92.19;100052.75;4994602;28;20037;-70
2021/12/03 08:49:54;;;;;;;11.15;3.80;;;;;;;15.06;92.71;100045.19;4995864;28;20070;-71
2021/12/03 08:53:05;;;;;;;9.18;3.78;;;;;;;14.99;91.51;100054.31;4995572;28;20022;-70
2021/12/03 08:55:51;;;;;;;8.05;4.07;;;;;;;15.62;88.02;100046.00;4995144;28;20374;-71
2021/12/03 08:58:37;;;;;;;10.75;4.25;;;;;;;15.48;89.12;100054.63;4995329;28;20097;-71
2021/12/03 09:01:22;;;;;;;9.82;4.60;;;;;;;15.42;89.44;100060.19;4996279;28;20113;-70
2021/12/03 09:04:08;;;;;;;8.05;4.53;;;;;;;15.60;89.76;100053.16;4995727;28;20444;-71
2021/12/03 09:06:56;;;;;;;7.97;5.20;;;;;;;15.36;92.05;100056.97;4995617;28;20042;-73
2021/12/03 09:09:42;;;;;;;9.90;5.75;;;;;;;15.57;90.75;100056.81;4995411;28;20026;-70
2021/12/03 09:12:28;;;;;;;9.88;5.28;;;;;;;15.37;92.56;100056.91;4995513;28;20054;-70
2021/12/03 09:15:17;;;;;;;13.55;5.93;;;;;;;15.58;91.28;100040.03;4995667;28;20100;-70
2021/12/03 09:18:16;;;;;;;11.15;5.43;;;;;;;15.64;91.04;100044.16;4995084;28;20026;-70
2021/12/03 09:21:09;;;;;;;11.02;4.93;;;;;;;15.76;90.13;100047.09;4995222;28;20018;-71
2021/12/03 09:24:16;;;;;;;12.27;5.40;;;;;;;16.26;87.33;100048.03;4994431;28;20033;-70
2021/12/03 09:27:02;;;;;;;12.35;5.72;;;;;;;16.04;89.13;100041.28;4994767;28;20446;-70
2021/12/03 09:29:49;;;;;;;9.88;5.35;;;;;;;16.27;88.48;100038.31;4995607;28;20507;-70
2021/12/03 09:32:35;;;;;;;12.48;5.55;;;;;;;15.76;89.69;100040.94;4995407;28;20414;-70
2021/12/03 09:35:23;;;;;;;12.27;5.80;;;;;;;16.47;88.28;100027.59;4994874;28;20038;-70
2021/12/03 09:38:09;;;;;;;14.27;5.22;;;;;;;16.21;90.24;100031.56;4994697;28;20037;-70
2021/12/03 09:40:55;;;;;;;11.50;5.47;;;;;;;16.39;88.56;100029.75;4994838;28;20400;-71
2021/12/03 09:43:44;;;;;;;12.25;5.28;;;;;;;16.17;91.11;100023.84;4994450;28;20034;-70
2021/12/03 09:46:31;;;;;;;12.02;5.43;;;;;;;16.42;89.22;100017.25;4995775;28;20462;-71
2021/12/03 09:52:25;;;;;;;14.13;5.35;;;;;;;16.46;89.49;100017.94;4995547;28;20022;-71
2021/12/03 09:55:15;;;;;;;16.70;5.55;;;;;;;16.81;89.86;100019.59;4994780;28;20113;-70
2021/12/03 10:01:28;;;;;;;14.98;5.10;;;;;;;17.34;85.63;100009.53;4986427;28;20038;-71
2021/12/03 10:08:28;;;;;;;9.93;4.38;;;;;;;17.51;84.40;100006.81;4994643;28;20049;-71
2021/12/03 10:13:59;;;;;;;8.60;4.43;;;;;;;17.10;86.47;100013.56;4994025;28;20192;-71
2021/12/03 10:24:06;;;;;;;8.82;4.18;;;;;;;17.77;80.92;100003.56;4995275;28;20018;-71
2021/12/03 10:30:12;;;;;;;7.28;2.90;;;;;;;17.59;81.98;100016.06;4994286;28;20030;-70
2021/12/03 10:39:27;;;;;;;5.97;3.90;;;;;;;17.84;80.00;100018.16;4995025;28;20088;-71
2021/12/03 12:10:18;;;;;;;9.52;4.35;;;;;;;18.00;94.75;100035.72;4997062;28;20037;-70
2021/12/03 12:38:02;;;;;;;8.88;5.25;;;;;;;17.68;100.00;100039.38;4995179;28;20042;-70
2021/12/03 12:41:09;;;;;;;10.30;5.70;;;;;;;17.61;100.00;100039.81;5072060;27;20368;-70
2021/12/03 13:08:53;;;;;;;15.93;6.72;;;;;;;16.94;100.00;100060.31;5111967;28;20062;-70
2021/12/03 13:12:08;;;;;;;15.10;6.78;;;;;;;17.29;99.42;100056.63;5110417;28;20089;-70
2021/12/03 14:07:43;;;;;;;8.25;4.22;;;;;;;17.04;94.04;100112.66;5062799;28;20036;-71
2021/12/03 14:36:22;;;;;;;9.38;6.07;;;;;;;14.26;100.00;100223.56;5073866;28;20032;-69
2021/12/03 14:45:07;;;;;;;16.63;11.35;;;;;;;13.91;100.00;100253.03;5096298;28;20039;-71
2021/12/03 14:57:26;;;;;;;16.50;10.02;;;;;;;13.35;100.00;100269.22;5095371;28;20028;-71
2021/12/03 15:00:19;;;;;;;19.70;10.77;;;;;;;13.52;100.00;100274.72;5082215;28;20027;-70
2021/12/03 15:06:19;;;;;;;15.75;10.10;;;;;;;13.78;100.00;100286.00;5096175;28;20456;-71
2021/12/03 15:35:38;;;;;;;29.95;18.83;;;;;;;14.08;100.00;100302.44;5095237;28;20038;-71
2021/12/03 15:57:25;;;;;;;64.78;37.35;;;;;;;13.96;100.00;100352.94;5095134;28;20118;-70
2021/12/03 16:06:17;;;;;;;46.50;25.38;;;;;;;13.26;100.00;100367.72;5093566;28;20035;-70
2021/12/03 16:09:11;;;;;;;36.80;21.83;;;;;;;13.27;100.00;100381.75;5093627;28;20021;-71
2021/12/03 16:12:13;;;;;;;37.10;22.25;;;;;;;13.30;100.00;100392.19;5095021;28;20024;-71
2021/12/03 16:21:26;;;;;;;28.30;16.88;;;;;;;13.27;100.00;100424.69;5095279;28;20373;-71
2021/12/03 16:54:10;;;;;;;28.05;18.67;;;;;;;11.16;100.00;100484.13;5094790;28;20103;-70
2021/12/03 16:56:56;;;;;;;29.85;18.65;;;;;;;11.34;100.00;100482.81;5093880;28;20024;-69
2021/12/03 16:59:44;;;;;;;34.75;22.15;;;;;;;11.71;100.00;100481.03;5092306;28;20440;-71
2021/12/03 17:02:38;;;;;;;39.28;22.38;;;;;;;11.42;100.00;100494.88;5093864;28;20032;-70
2021/12/03 17:56:10;;;;;;;37.22;24.73;;;;;;;11.44;100.00;100558.63;5096269;28;20020;-70
2021/12/03 17:59:07;;;;;;;38.70;25.40;;;;;;;11.34;100.00;100545.78;5096384;28;20036;-71
2021/12/03 18:02:04;;;;;;;41.97;27.23;;;;;;;11.30;100.00;100554.59;5096402;28;20050;-70
2021/12/03 18:07:53;;;;;;;40.35;26.73;;;;;;;11.63;100.00;100552.09;5096935;28;20028;-71
2021/12/03 18:56:19;;;;;;;24.77;16.23;;;;;;;10.25;100.00;100662.44;5095577;28;20028;-70
2021/12/03 18:59:07;;;;;;;20.00;13.07;;;;;;;10.09;100.00;100653.97;5081276;28;20492;-70
2021/12/03 19:01:54;;;;;;;17.98;12.55;;;;;;;10.31;100.00;100648.34;5095894;28;20027;-70
2021/12/03 19:04:49;;;;;;;15.88;10.65;;;;;;;10.31;100.00;100649.22;5095722;28;20035;-70
2021/12/03 19:07:44;;;;;;;15.10;9.35;;;;;;;10.24;100.00;100634.50;5095222;28;20355;-70
2021/12/03 19:10:32;;;;;;;14.25;9.13;;;;;;;10.49;100.00;100653.28;5095851;28;20028;-69
2021/12/03 19:13:27;;;;;;;15.80;9.90;;;;;;;10.46;100.00;100643.72;5096354;28;20028;-69
2021/12/03 19:16:15;;;;;;;17.73;9.13;;;;;;;10.33;100.00;100655.28;5095319;28;20103;-70
2021/12/03 19:19:04;;;;;;;12.00;8.00;;;;;;;10.02;100.00;100665.38;5095630;28;20052;-70
2021/12/03 19:21:53;;;;;;;14.73;8.75;;;;;;;10.04;100.00;100674.09;5095348;28;20031;-72
2021/12/03 19:24:40;;;;;;;13.60;9.40;;;;;;;10.13;100.00;100694.06;5079589;28;20035;-73
2021/12/03 19:27:27;;;;;;;16.63;10.35;;;;;;;9.93;100.00;100688.25;5095425;28;20361;-69
2021/12/03 19:30:15;;;;;;;14.52;8.90;;;;;;;10.22;100.00;100693.91;5095097;28;20028;-71
2021/12/03 19:33:01;;;;;;;13.18;8.55;;;;;;;10.18;100.00;100701.81;5093825;28;20039;-70
2021/12/03 19:35:46;;;;;;;12.15;8.43;;;;;;;10.29;100.00;100719.06;5094831;28;20032;-69
2021/12/03 19:38:36;;;;;;;10.95;7.68;;;;;;;9.96;100.00;100730.91;5094734;28;20372;-70
2021/12/03 19:44:32;;;;;;;11.20;5.88;;;;;;;9.99;100.00;100728.28;5094728;28;20024;-73
2021/12/03 19:47:26;;;;;;;8.85;5.40;;;;;;;10.14;100.00;100729.81;5095145;28;20057;-72
2021/12/03 19:50:31;;;;;;;9.45;5.72;;;;;;;9.83;100.00;100721.53;5094391;28;20028;-73
2021/12/03 19:53:18;;;;;;;7.07;4.85;;;;;;;9.91;100.00;100737.09;5094570;28;20360;-70
2021/12/03 19:56:05;;;;;;;9.10;4.63;;;;;;;9.94;100.00;100735.31;5094334;28;20032;-70
2021/12/03 19:58:52;;;;;;;4.80;3.20;;;;;;;9.96;100.00;100737.91;5094891;28;20444;-73
2021/12/03 20:01:39;;;;;;;5.00;3.58;;;;;;;9.89;100.00;100736.28;5093777;28;20036;-70
2021/12/03 20:04:24;;;;;;;4.82;2.95;;;;;;;9.92;100.00;100742.31;5094102;28;20031;-72
2021/12/03 20:07:10;;;;;;;4.82;3.15;;;;;;;10.05;100.00;100750.91;5094804;28;20031;-70
2021/12/03 20:10:08;;;;;;;4.32;3.20;;;;;;;9.83;100.00;100749.44;5095077;28;20036;-71
2021/12/03 20:12:54;;;;;;;5.28;2.97;;;;;;;9.83;100.00;100754.66;5094219;28;20472;-70
2021/12/03 20:21:16;;;;;;;3.55;3.03;;;;;;;9.66;100.00;100757.50;5094824;28;20024;-74
2021/12/03 20:32:37;;;;;;;3.30;2.70;;;;;;;9.46;100.00;100777.84;5095076;28;20506;-69
2021/12/03 20:35:37;;;;;;;5.18;2.80;;;;;;;9.38;100.00;100789.25;5093948;28;20098;-70
2021/12/03 20:38:28;;;;;;;3.80;2.88;;;;;;;9.48;100.00;100796.09;5094897;28;20071;-72
2021/12/03 20:41:25;;;;;;;3.80;3.05;;;;;;;9.43;100.00;100792.69;5094384;28;20333;-70
2021/12/03 20:50:09;;;;;;;4.60;3.58;;;;;;;9.32;100.00;100828.53;5094305;28;20016;-71
2021/12/03 20:53:21;;;;;;;5.60;3.90;;;;;;;10.02;100.00;100826.81;5094133;28;20460;-71